sensor_id;sensor_type;location;lat;lon;timestamp;P1;P4;P2;P0;N10;N4;N25;N1;N05;TS
68555;SPS30;55544;51.032;5.866;2022-11-23T00:02:00;3.24;3.05;2.69;2.13;17.06;17.05;16.96;16.48;13.83;0.63
68555;SPS30;55544;51.032;5.866;2022-11-23T00:04:26;3.24;3.02;2.60;1.97;15.79;15.77;15.67;15.12;12.50;0.66
68555;SPS30;55544;51.032;5.866;2022-11-23T00:06:51;3.80;3.55;3.07;2.35;18.80;18.77;18.66;18.02;14.94;0.64
68555;SPS30;55544;51.032;5.866;2022-11-23T00:09:17;3.90;3.64;3.14;2.40;19.22;19.20;19.08;18.42;15.26;0.65
68555;SPS30;55544;51.032;5.866;2022-11-23T00:11:43;3.83;3.58;3.10;2.39;19.14;19.11;19.00;18.37;15.26;0.66
68555;SPS30;55544;51.032;5.866;2022-11-23T00:14:09;3.49;3.28;2.87;2.25;18.02;18.00;17.90;17.36;14.52;0.66
68555;SPS30;55544;51.032;5.866;2022-11-23T00:16:35;3.48;3.27;2.88;2.26;18.12;18.10;18.01;17.48;14.65;0.66
68555;SPS30;55544;51.032;5.866;2022-11-23T00:19:01;3.77;3.53;3.07;2.38;19.04;19.02;18.91;18.30;15.24;0.67
68555;SPS30;55544;51.032;5.866;2022-11-23T00:21:28;4.11;3.83;3.29;2.49;19.97;19.95;19.82;19.11;15.79;0.67
68555;SPS30;55544;51.032;5.866;2022-11-23T00:23:55;4.14;3.87;3.33;2.55;20.39;20.36;20.24;19.54;16.19;0.64
68555;SPS30;55544;51.032;5.866;2022-11-23T00:26:22;3.63;3.41;2.98;2.33;18.62;18.59;18.49;17.93;14.97;0.63
68555;SPS30;55544;51.032;5.866;2022-11-23T00:28:48;3.61;3.40;2.98;2.34;18.69;18.67;18.56;18.01;15.06;0.65
68555;SPS30;55544;51.032;5.866;2022-11-23T00:31:14;3.87;3.63;3.17;2.46;19.71;19.68;19.57;18.96;15.81;0.64
68555;SPS30;55544;51.032;5.866;2022-11-23T00:33:42;3.79;3.57;3.13;2.47;19.75;19.72;19.62;19.04;15.95;0.63
68555;SPS30;55544;51.032;5.866;2022-11-23T00:36:13;3.70;3.47;3.04;2.37;19.00;18.98;18.87;18.30;15.29;0.64
68555;SPS30;55544;51.032;5.866;2022-11-23T00:38:41;3.81;3.56;3.08;2.37;18.95;18.92;18.81;18.18;15.09;0.64
68555;SPS30;55544;51.032;5.866;2022-11-23T00:41:10;3.92;3.67;3.19;2.47;19.77;19.75;19.63;19.00;15.82;0.64
68555;SPS30;55544;51.032;5.866;2022-11-23T00:43:41;3.69;3.46;3.01;2.33;18.64;18.62;18.51;17.92;14.92;0.63
68555;SPS30;55544;51.032;5.866;2022-11-23T00:48:41;3.25;3.06;2.70;2.14;17.15;17.13;17.04;16.56;13.91;0.63
68555;SPS30;55544;51.032;5.866;2022-11-23T00:51:09;3.43;3.23;2.84;2.24;17.93;17.92;17.82;17.31;14.51;0.63
68555;SPS30;55544;51.032;5.866;2022-11-23T00:53:38;3.60;3.39;2.99;2.37;18.95;18.93;18.83;18.30;15.37;0.61
68555;SPS30;55544;51.032;5.866;2022-11-23T00:56:05;3.19;3.01;2.67;2.14;17.11;17.10;17.01;16.56;13.95;0.60
68555;SPS30;55544;51.032;5.866;2022-11-23T00:58:31;4.01;3.80;3.38;2.72;21.76;21.74;21.64;21.09;17.80;0.59
68555;SPS30;55544;51.032;5.866;2022-11-23T01:03:33;3.42;3.25;2.91;2.37;18.94;18.92;18.84;18.39;15.58;0.61
68555;SPS30;55544;51.032;5.866;2022-11-23T01:06:08;3.04;2.88;2.56;2.06;16.51;16.49;16.42;15.99;13.50;0.61
68555;SPS30;55544;51.032;5.866;2022-11-23T01:08:36;3.49;3.28;2.89;2.28;18.27;18.25;18.16;17.64;14.79;0.64
68555;SPS30;55544;51.032;5.866;2022-11-23T01:11:03;3.12;2.94;2.59;2.05;16.42;16.40;16.32;15.86;13.31;0.65
68555;SPS30;55544;51.032;5.866;2022-11-23T01:13:34;3.53;3.31;2.90;2.26;18.10;18.07;17.97;17.42;14.55;0.65
68555;SPS30;55544;51.032;5.866;2022-11-23T01:16:01;3.48;3.27;2.85;2.22;17.78;17.76;17.66;17.12;14.29;0.64
68555;SPS30;55544;51.032;5.866;2022-11-23T01:18:27;3.22;3.04;2.68;2.12;16.96;16.94;16.85;16.38;13.74;0.63
68555;SPS30;55544;51.032;5.866;2022-11-23T01:20:53;3.69;3.49;3.08;2.44;19.54;19.52;19.42;18.88;15.86;0.61
68555;SPS30;55544;51.032;5.866;2022-11-23T01:23:19;3.32;3.13;2.75;2.17;17.40;17.38;17.29;16.79;14.08;0.63
68555;SPS30;55544;51.032;5.866;2022-11-23T01:25:45;4.10;3.86;3.38;2.66;21.25;21.22;21.11;20.48;17.14;0.62
68555;SPS30;55544;51.032;5.866;2022-11-23T01:28:11;3.49;3.29;2.90;2.29;18.29;18.27;18.18;17.65;14.80;0.61
68555;SPS30;55544;51.032;5.866;2022-11-23T01:30:37;3.89;3.64;3.16;2.43;19.45;19.43;19.31;18.67;15.52;0.62
68555;SPS30;55544;51.032;5.866;2022-11-23T01:33:02;3.76;3.52;3.05;2.35;18.84;18.82;18.70;18.09;15.04;0.64
68555;SPS30;55544;51.032;5.866;2022-11-23T01:35:29;3.70;3.46;2.99;2.28;18.27;18.25;18.14;17.52;14.52;0.64
68555;SPS30;55544;51.032;5.866;2022-11-23T01:37:55;3.64;3.40;2.93;2.24;17.94;17.92;17.81;17.20;14.25;0.63
68555;SPS30;55544;51.032;5.866;2022-11-23T01:40:21;4.04;3.79;3.31;2.59;20.71;20.68;20.57;19.94;16.65;0.59
68555;SPS30;55544;51.032;5.866;2022-11-23T01:42:58;3.94;3.71;3.26;2.58;20.62;20.60;20.49;19.90;16.69;0.60
68555;SPS30;55544;51.032;5.866;2022-11-23T01:45:33;3.79;3.55;3.09;2.39;19.14;19.12;19.00;18.40;15.32;0.62
68555;SPS30;55544;51.032;5.866;2022-11-23T01:48:03;3.70;3.45;2.96;2.25;18.00;17.97;17.86;17.22;14.23;0.65
68555;SPS30;55544;51.032;5.866;2022-11-23T01:50:42;4.04;3.76;3.22;2.43;19.45;19.42;19.30;18.59;15.33;0.66
68555;SPS30;55544;51.032;5.866;2022-11-23T01:53:11;4.64;4.29;3.59;2.60;20.83;20.80;20.63;19.73;16.00;0.68
68555;SPS30;55544;51.032;5.866;2022-11-23T01:55:37;4.08;3.80;3.25;2.45;19.59;19.56;19.43;18.71;15.42;0.66
68555;SPS30;55544;51.032;5.866;2022-11-23T01:58:03;3.86;3.60;3.10;2.37;18.94;18.92;18.80;18.14;15.01;0.66
68555;SPS30;55544;51.032;5.866;2022-11-23T02:00:34;4.33;4.04;3.48;2.65;21.18;21.15;21.01;20.28;16.77;0.66
68555;SPS30;55544;51.032;5.866;2022-11-23T02:03:00;4.59;4.28;3.68;2.79;22.37;22.34;22.19;21.41;17.69;0.64
68555;SPS30;55544;51.032;5.866;2022-11-23T02:05:41;4.75;4.41;3.73;2.76;22.13;22.10;21.94;21.06;17.24;0.67
68555;SPS30;55544;51.032;5.866;2022-11-23T02:08:14;4.85;4.49;3.78;2.77;22.19;22.15;21.99;21.06;17.16;0.68
68555;SPS30;55544;51.032;5.866;2022-11-23T02:10:43;5.08;4.72;4.02;2.99;23.97;23.94;23.77;22.85;18.75;0.66
68555;SPS30;55544;51.032;5.866;2022-11-23T02:13:10;4.81;4.46;3.78;2.80;22.43;22.40;22.23;21.35;17.48;0.67
68555;SPS30;55544;51.032;5.866;2022-11-23T02:15:38;4.78;4.45;3.79;2.83;22.66;22.63;22.47;21.61;17.75;0.66
68555;SPS30;55544;51.032;5.866;2022-11-23T02:18:08;4.96;4.60;3.90;2.89;23.11;23.08;22.91;21.99;18.00;0.68
68555;SPS30;55544;51.032;5.866;2022-11-23T02:20:41;4.70;4.35;3.68;2.70;21.66;21.62;21.46;20.58;16.80;0.66
68555;SPS30;55544;51.032;5.866;2022-11-23T02:23:11;5.15;4.79;4.10;3.08;24.69;24.66;24.49;23.58;19.42;0.65
68555;SPS30;55544;51.032;5.866;2022-11-23T02:25:59;4.17;3.90;3.35;2.55;20.43;20.41;20.28;19.57;16.19;0.64
68555;SPS30;55544;51.032;5.866;2022-11-23T02:28:39;4.72;4.44;3.89;3.05;24.38;24.35;24.22;23.50;19.65;0.64
68555;SPS30;55544;51.032;5.866;2022-11-23T02:31:09;4.71;4.42;3.84;2.97;23.76;23.73;23.59;22.83;19.00;0.67
68555;SPS30;55544;51.032;5.866;2022-11-23T02:33:38;4.74;4.40;3.73;2.77;22.15;22.11;21.95;21.08;17.27;0.68
68555;SPS30;55544;51.032;5.866;2022-11-23T02:41:48;5.16;4.75;3.96;2.84;22.72;22.69;22.50;21.46;17.33;0.69
68555;SPS30;55544;51.032;5.866;2022-11-23T02:47:12;5.45;4.98;4.08;2.83;22.68;22.64;22.42;21.26;16.92;0.71
68555;SPS30;55544;51.032;5.866;2022-11-23T02:49:44;5.23;4.78;3.91;2.71;21.75;21.71;21.50;20.38;16.22;0.72
68555;SPS30;55544;51.032;5.866;2022-11-23T02:52:11;5.13;4.71;3.88;2.74;21.94;21.90;21.71;20.64;16.55;0.72
68555;SPS30;55544;51.032;5.866;2022-11-23T02:54:37;5.57;5.12;4.23;3.00;24.04;23.99;23.78;22.64;18.19;0.71
68555;SPS30;55544;51.032;5.866;2022-11-23T02:57:03;5.25;4.80;3.92;2.70;21.63;21.59;21.38;20.24;16.06;0.72
68555;SPS30;55544;51.032;5.866;2022-11-23T02:59:31;5.19;4.76;3.93;2.77;22.22;22.18;21.98;20.90;16.76;0.70
68555;SPS30;55544;51.032;5.866;2022-11-23T03:01:58;5.37;4.92;4.04;2.81;22.52;22.48;22.27;21.12;16.84;0.70
68555;SPS30;55544;51.032;5.866;2022-11-23T03:04:24;5.54;5.07;4.14;2.85;22.88;22.83;22.61;21.41;17.00;0.70
68555;SPS30;55544;51.032;5.866;2022-11-23T03:06:50;5.51;5.02;4.05;2.72;21.85;21.81;21.58;20.33;15.96;0.71
68555;SPS30;55544;51.032;5.866;2022-11-23T03:09:16;6.13;5.59;4.54;3.10;24.84;24.79;24.54;23.18;18.31;0.70
68555;SPS30;55544;51.032;5.866;2022-11-23T03:11:42;4.63;4.28;3.58;2.59;20.74;20.71;20.54;19.63;15.91;0.67
68555;SPS30;55544;51.032;5.866;2022-11-23T03:14:08;5.13;4.73;3.94;2.83;22.66;22.62;22.44;21.41;17.30;0.68
68555;SPS30;55544;51.032;5.866;2022-11-23T03:16:41;5.97;5.45;4.43;3.03;24.29;24.24;24.00;22.69;17.94;0.70
68555;SPS30;55544;51.032;5.866;2022-11-23T03:19:07;5.49;5.05;4.19;2.99;23.97;23.93;23.72;22.61;18.22;0.69
68555;SPS30;55544;51.032;5.866;2022-11-23T03:21:33;5.24;4.85;4.09;3.01;24.11;24.08;23.90;22.91;18.70;0.67
68555;SPS30;55544;51.032;5.866;2022-11-23T03:24:05;5.69;5.21;4.27;2.96;23.74;23.70;23.47;22.25;17.72;0.70
68555;SPS30;55544;51.032;5.866;2022-11-23T03:26:31;5.81;5.29;4.28;2.90;23.28;23.23;22.99;21.69;17.08;0.70
68555;SPS30;55544;51.032;5.866;2022-11-23T03:29:05;6.61;6.00;4.80;3.18;25.48;25.43;25.14;23.60;18.38;0.74
68555;SPS30;55544;51.032;5.866;2022-11-23T03:31:31;5.42;4.98;4.11;2.90;23.23;23.19;22.98;21.85;17.53;0.68
68555;SPS30;55544;51.032;5.866;2022-11-23T03:33:57;4.86;4.48;3.73;2.66;21.36;21.32;21.14;20.16;16.27;0.68
68555;SPS30;55544;51.032;5.866;2022-11-23T03:36:24;5.53;5.07;4.18;2.94;23.61;23.56;23.35;22.20;17.79;0.70
68555;SPS30;55544;51.032;5.866;2022-11-23T03:38:50;6.17;5.65;4.65;3.25;26.04;25.99;25.75;24.45;19.53;0.70
68555;SPS30;55544;51.032;5.866;2022-11-23T03:41:28;6.34;5.78;4.68;3.18;25.53;25.47;25.21;23.80;18.77;0.72
68555;SPS30;55544;51.032;5.866;2022-11-23T03:43:57;10.28;9.28;7.33;4.72;37.86;37.77;37.31;34.81;26.71;0.75
68555;SPS30;55544;51.032;5.866;2022-11-23T03:46:22;8.91;7.99;6.18;3.78;30.38;30.29;29.87;27.55;20.57;0.79
68555;SPS30;55544;51.032;5.866;2022-11-23T03:48:48;6.78;6.14;4.91;3.24;25.96;25.90;25.61;24.02;18.66;0.70
68555;SPS30;55544;51.032;5.866;2022-11-23T03:51:14;5.97;5.44;4.40;2.98;23.94;23.89;23.64;22.31;17.57;0.69
68555;SPS30;55544;51.032;5.866;2022-11-23T03:53:39;5.41;4.96;4.10;2.88;23.12;23.08;22.87;21.75;17.43;0.68
68555;SPS30;55544;51.032;5.866;2022-11-23T03:56:06;6.47;5.89;4.77;3.23;25.91;25.86;25.59;24.14;19.01;0.71
68555;SPS30;55544;51.032;5.866;2022-11-23T03:58:37;6.38;5.80;4.68;3.15;25.26;25.21;24.94;23.49;18.44;0.70
68555;SPS30;55544;51.032;5.866;2022-11-23T04:01:06;5.94;5.47;4.56;3.28;26.28;26.24;26.02;24.84;20.08;0.67
68555;SPS30;55544;51.032;5.866;2022-11-23T04:03:32;5.64;5.21;4.36;3.15;25.27;25.23;25.03;23.93;19.41;0.67
68555;SPS30;55544;51.032;5.866;2022-11-23T04:06:09;6.98;6.36;5.15;3.49;28.02;27.97;27.68;26.12;20.58;0.72
68555;SPS30;55544;51.032;5.866;2022-11-23T04:08:37;8.40;7.53;5.84;3.60;28.90;28.82;28.42;26.25;19.68;0.77
68555;SPS30;55544;51.032;5.866;2022-11-23T04:11:08;6.80;6.13;4.82;3.06;24.53;24.47;24.16;22.47;17.12;0.75
68555;SPS30;55544;51.032;5.866;2022-11-23T04:13:37;6.04;5.51;4.48;3.07;24.60;24.55;24.30;22.97;18.18;0.70
68555;SPS30;55544;51.032;5.866;2022-11-23T04:16:03;5.26;4.83;4.01;2.85;22.85;22.81;22.61;21.54;17.34;0.68
68555;SPS30;55544;51.032;5.866;2022-11-23T04:18:29;5.77;5.30;4.40;3.12;25.03;24.99;24.77;23.60;18.98;0.69
68555;SPS30;55544;51.032;5.866;2022-11-23T04:20:54;4.95;4.55;3.76;2.67;21.36;21.32;21.14;20.12;16.17;0.69
68555;SPS30;55544;51.032;5.866;2022-11-23T04:23:20;5.33;4.89;4.03;2.84;22.74;22.69;22.49;21.38;17.13;0.69
68555;SPS30;55544;51.032;5.866;2022-11-23T04:25:47;5.16;4.73;3.90;2.74;21.96;21.92;21.72;20.64;16.52;0.69
68555;SPS30;55544;51.032;5.866;2022-11-23T04:28:13;5.21;4.79;3.97;2.81;22.56;22.52;22.32;21.26;17.09;0.68
68555;SPS30;55544;51.032;5.866;2022-11-23T04:30:40;5.50;5.09;4.30;3.16;25.32;25.28;25.09;24.06;19.63;0.66
68555;SPS30;55544;51.032;5.866;2022-11-23T04:33:05;4.97;4.60;3.88;2.85;22.82;22.79;22.62;21.68;17.68;0.67
68555;SPS30;55544;51.032;5.866;2022-11-23T04:35:31;4.34;4.01;3.37;2.45;19.64;19.60;19.45;18.62;15.13;0.67
68555;SPS30;55544;51.032;5.866;2022-11-23T04:37:58;4.76;4.38;3.63;2.57;20.64;20.60;20.42;19.45;15.64;0.68
68555;SPS30;55544;51.032;5.866;2022-11-23T04:40:26;4.85;4.47;3.71;2.65;21.21;21.18;21.00;20.02;16.13;0.69
68555;SPS30;55544;51.032;5.866;2022-11-23T04:42:59;5.33;4.90;4.08;2.91;23.36;23.32;23.12;22.05;17.78;0.68
68555;SPS30;55544;51.032;5.866;2022-11-23T04:45:25;4.94;4.55;3.79;2.71;21.70;21.67;21.48;20.49;16.53;0.68
68555;SPS30;55544;51.032;5.866;2022-11-23T04:47:53;5.11;4.71;3.94;2.84;22.78;22.74;22.55;21.55;17.45;0.66
68555;SPS30;55544;51.032;5.866;2022-11-23T04:50:20;5.38;4.97;4.19;3.07;24.60;24.56;24.37;23.35;19.03;0.65
68555;SPS30;55544;51.032;5.866;2022-11-23T04:52:50;5.38;4.94;4.08;2.88;23.06;23.02;22.81;21.70;17.40;0.67
68555;SPS30;55544;51.032;5.866;2022-11-23T04:55:20;6.57;5.97;4.79;3.18;25.52;25.47;25.19;23.67;18.46;0.71
68555;SPS30;55544;51.032;5.866;2022-11-23T04:57:53;5.91;5.42;4.47;3.14;25.17;25.13;24.90;23.67;18.95;0.67
68555;SPS30;55544;51.032;5.866;2022-11-23T05:00:21;5.02;4.63;3.87;2.79;22.38;22.34;22.16;21.17;17.14;0.64
68555;SPS30;55544;51.032;5.866;2022-11-23T05:02:47;4.72;4.35;3.63;2.61;20.91;20.88;20.70;19.77;15.99;0.64
68555;SPS30;55544;51.032;5.866;2022-11-23T05:05:18;4.89;4.54;3.87;2.89;23.16;23.12;22.96;22.08;18.14;0.64
68555;SPS30;55544;51.032;5.866;2022-11-23T05:07:44;5.25;4.89;4.17;3.13;25.05;25.01;24.84;23.91;19.67;0.64
68555;SPS30;55544;51.032;5.866;2022-11-23T05:10:09;4.88;4.52;3.82;2.81;22.47;22.44;22.27;21.35;17.43;0.64
68555;SPS30;55544;51.032;5.866;2022-11-23T05:12:35;5.12;4.73;3.97;2.89;23.13;23.09;22.91;21.92;17.81;0.63
68555;SPS30;55544;51.032;5.866;2022-11-23T05:15:02;4.71;4.36;3.67;2.69;21.56;21.53;21.37;20.47;16.68;0.62
68555;SPS30;55544;51.032;5.866;2022-11-23T05:17:38;5.44;4.97;4.06;2.81;22.50;22.45;22.24;21.06;16.73;0.67
68555;SPS30;55544;51.032;5.866;2022-11-23T05:20:08;5.34;4.86;3.93;2.65;21.23;21.18;20.96;19.75;15.52;0.70
68555;SPS30;55544;51.032;5.866;2022-11-23T05:22:40;5.24;4.76;3.82;2.55;20.43;20.38;20.16;18.95;14.80;0.73
68555;SPS30;55544;51.032;5.866;2022-11-23T05:25:08;5.26;4.78;3.84;2.56;20.57;20.53;20.31;19.10;14.93;0.73
68555;SPS30;55544;51.032;5.866;2022-11-23T05:27:36;4.77;4.34;3.50;2.35;18.82;18.78;18.58;17.50;13.72;0.71
68555;SPS30;55544;51.032;5.866;2022-11-23T05:30:02;4.46;4.07;3.30;2.24;17.99;17.95;17.77;16.78;13.24;0.70
68555;SPS30;55544;51.032;5.866;2022-11-23T05:32:29;4.89;4.46;3.61;2.44;19.60;19.56;19.36;18.26;14.38;0.71
68555;SPS30;55544;51.032;5.866;2022-11-23T05:34:56;5.19;4.68;3.70;2.38;19.09;19.04;18.81;17.54;13.46;0.75
68555;SPS30;55544;51.032;5.866;2022-11-23T05:37:24;4.97;4.48;3.51;2.22;17.86;17.81;17.58;16.34;12.43;0.77
68555;SPS30;55544;51.032;5.866;2022-11-23T05:40:01;4.90;4.44;3.53;2.30;18.43;18.39;18.17;17.00;13.13;0.74
68555;SPS30;55544;51.032;5.866;2022-11-23T05:42:28;4.61;4.17;3.31;2.15;17.23;17.19;16.99;15.88;12.24;0.74
68555;SPS30;55544;51.032;5.866;2022-11-23T05:44:58;5.11;4.61;3.65;2.36;18.93;18.89;18.66;17.42;13.40;0.75
68555;SPS30;55544;51.032;5.866;2022-11-23T05:47:33;5.25;4.75;3.76;2.43;19.50;19.45;19.22;17.95;13.81;0.76
68555;SPS30;55544;51.032;5.866;2022-11-23T05:50:02;4.38;3.98;3.19;2.11;16.94;16.91;16.72;15.70;12.24;0.73
68555;SPS30;55544;51.032;5.866;2022-11-23T05:52:30;4.62;4.18;3.32;2.16;17.35;17.31;17.11;16.00;12.36;0.77
68555;SPS30;55544;51.032;5.866;2022-11-23T05:54:55;5.38;4.85;3.80;2.40;19.30;19.25;19.00;17.65;13.42;0.79
68555;SPS30;55544;51.032;5.866;2022-11-23T05:57:22;5.19;4.71;3.76;2.47;19.84;19.79;19.57;18.35;14.25;0.77
68555;SPS30;55544;51.032;5.866;2022-11-23T05:59:49;4.60;4.19;3.38;2.27;18.20;18.16;17.97;16.92;13.28;0.75
68555;SPS30;55544;51.032;5.866;2022-11-23T06:02:19;5.08;4.61;3.70;2.46;19.71;19.67;19.45;18.28;14.26;0.76
68555;SPS30;55544;51.032;5.866;2022-11-23T06:04:47;4.26;3.87;3.10;2.05;16.44;16.41;16.22;15.23;11.86;0.75
68555;SPS30;55544;51.032;5.866;2022-11-23T06:07:17;4.79;4.34;3.45;2.26;18.12;18.08;17.87;16.73;12.95;0.76
68555;SPS30;55544;51.032;5.866;2022-11-23T06:10:01;4.30;3.88;3.07;1.98;15.92;15.89;15.69;14.65;11.26;0.76
68555;SPS30;55544;51.032;5.866;2022-11-23T06:12:30;5.17;4.68;3.71;2.41;19.35;19.31;19.08;17.84;13.76;0.75
68555;SPS30;55544;51.032;5.866;2022-11-23T06:14:58;4.53;4.10;3.25;2.11;16.94;16.90;16.70;15.61;12.04;0.75
68555;SPS30;55544;51.032;5.866;2022-11-23T06:17:24;4.97;4.50;3.56;2.31;18.52;18.48;18.26;17.06;13.14;0.75
68555;SPS30;55544;51.032;5.866;2022-11-23T06:19:54;4.16;3.77;3.00;1.96;15.70;15.66;15.48;14.49;11.20;0.76
68555;SPS30;55544;51.032;5.866;2022-11-23T06:22:21;4.78;4.32;3.40;2.18;17.48;17.44;17.22;16.04;12.28;0.77
68555;SPS30;55544;51.032;5.866;2022-11-23T06:24:57;4.95;4.47;3.53;2.27;18.21;18.17;17.95;16.74;12.84;0.76
68555;SPS30;55544;51.032;5.866;2022-11-23T06:27:39;4.53;4.09;3.24;2.09;16.79;16.75;16.55;15.45;11.88;0.75
68555;SPS30;55544;51.032;5.866;2022-11-23T06:30:14;4.42;4.00;3.19;2.10;16.84;16.80;16.61;15.57;12.08;0.73
68555;SPS30;55544;51.032;5.866;2022-11-23T06:32:40;4.25;3.87;3.12;2.10;16.81;16.77;16.59;15.63;12.26;0.72
68555;SPS30;55544;51.032;5.866;2022-11-23T06:35:06;3.98;3.64;2.95;2.01;16.15;16.12;15.96;15.08;11.91;0.72
68555;SPS30;55544;51.032;5.866;2022-11-23T06:37:36;4.05;3.70;2.99;2.03;16.28;16.25;16.08;15.17;11.96;0.73
68555;SPS30;55544;51.032;5.866;2022-11-23T06:40:01;3.79;3.46;2.80;1.90;15.20;15.17;15.01;14.16;11.15;0.73
68555;SPS30;55544;51.032;5.866;2022-11-23T06:42:27;3.82;3.48;2.82;1.90;15.26;15.23;15.07;14.21;11.17;0.74
68555;SPS30;55544;51.032;5.866;2022-11-23T06:44:53;4.87;4.44;3.59;2.43;19.51;19.47;19.27;18.18;14.31;0.74
68555;SPS30;55544;51.032;5.866;2022-11-23T06:47:20;4.95;4.50;3.62;2.42;19.38;19.34;19.13;17.99;14.07;0.75
68555;SPS30;55544;51.032;5.866;2022-11-23T06:49:46;4.94;4.49;3.60;2.39;19.21;19.17;18.96;17.81;13.90;0.75
68555;SPS30;55544;51.032;5.866;2022-11-23T06:52:20;5.17;4.69;3.75;2.47;19.82;19.78;19.55;18.34;14.25;0.74
68555;SPS30;55544;51.032;5.866;2022-11-23T06:54:48;6.13;5.55;4.40;2.86;22.93;22.87;22.60;21.13;16.29;0.74
68555;SPS30;55544;51.032;5.866;2022-11-23T06:57:15;5.76;5.24;4.22;2.84;22.78;22.73;22.49;21.19;16.62;0.70
68555;SPS30;55544;51.032;5.866;2022-11-23T06:59:41;4.63;4.25;3.51;2.48;19.87;19.83;19.65;18.70;15.00;0.67
68555;SPS30;55544;51.032;5.866;2022-11-23T07:02:08;4.62;4.23;3.46;2.40;19.26;19.22;19.04;18.05;14.37;0.68
68555;SPS30;55544;51.032;5.866;2022-11-23T07:04:35;4.45;4.06;3.30;2.25;18.08;18.04;17.86;16.88;13.34;0.69
68555;SPS30;55544;51.032;5.866;2022-11-23T07:07:03;4.69;4.25;3.39;2.23;17.88;17.84;17.64;16.54;12.83;0.71
68555;SPS30;55544;51.032;5.866;2022-11-23T07:09:38;5.64;5.10;4.04;2.62;21.01;20.96;20.71;19.35;14.90;0.73
68555;SPS30;55544;51.032;5.866;2022-11-23T07:12:26;4.11;3.73;2.97;1.95;15.68;15.64;15.46;14.50;11.25;0.74
68555;SPS30;55544;51.032;5.866;2022-11-23T07:14:52;4.12;3.72;2.94;1.89;15.19;15.15;14.97;13.96;10.72;0.77
68555;SPS30;55544;51.032;5.866;2022-11-23T07:17:18;3.92;3.54;2.79;1.78;14.28;14.24;14.06;13.10;10.01;0.79
68555;SPS30;55544;51.032;5.866;2022-11-23T07:19:44;3.97;3.59;2.86;1.86;14.96;14.93;14.76;13.81;10.68;0.77
68555;SPS30;55544;51.032;5.866;2022-11-23T07:22:10;3.86;3.50;2.80;1.84;14.75;14.71;14.55;13.64;10.58;0.76
68555;SPS30;55544;51.032;5.866;2022-11-23T07:24:37;3.98;3.60;2.85;1.85;14.82;14.78;14.61;13.64;10.50;0.77
68555;SPS30;55544;51.032;5.866;2022-11-23T07:27:05;3.84;3.48;2.78;1.83;14.68;14.65;14.48;13.58;10.54;0.75
68555;SPS30;55544;51.032;5.866;2022-11-23T07:29:30;3.65;3.31;2.64;1.74;13.97;13.94;13.78;12.92;10.03;0.74
68555;SPS30;55544;51.032;5.866;2022-11-23T07:31:56;3.72;3.39;2.73;1.83;14.72;14.68;14.53;13.68;10.73;0.73
68555;SPS30;55544;51.032;5.866;2022-11-23T07:34:24;3.88;3.53;2.84;1.91;15.32;15.29;15.13;14.25;11.17;0.72
68555;SPS30;55544;51.032;5.866;2022-11-23T07:36:50;4.37;3.97;3.20;2.15;17.22;17.18;17.00;16.00;12.54;0.72
68555;SPS30;55544;51.032;5.866;2022-11-23T07:39:16;4.40;3.99;3.17;2.07;16.60;16.56;16.37;15.32;11.84;0.77
68555;SPS30;55544;51.032;5.866;2022-11-23T07:41:42;4.90;4.42;3.49;2.23;17.89;17.85;17.63;16.42;12.56;0.79
68555;SPS30;55544;51.032;5.866;2022-11-23T07:44:17;4.15;3.79;3.08;2.11;16.94;16.90;16.74;15.83;12.53;0.72
68555;SPS30;55544;51.032;5.866;2022-11-23T07:46:43;3.98;3.63;2.95;2.00;16.06;16.03;15.86;14.98;11.81;0.73
68555;SPS30;55544;51.032;5.866;2022-11-23T07:49:09;4.02;3.67;2.98;2.04;16.35;16.32;16.16;15.27;12.08;0.73
68555;SPS30;55544;51.032;5.866;2022-11-23T07:51:35;3.84;3.49;2.82;1.91;15.30;15.27;15.11;14.24;11.20;0.75
68555;SPS30;55544;51.032;5.866;2022-11-23T07:54:00;3.69;3.37;2.74;1.87;14.98;14.95;14.80;13.98;11.05;0.73
68555;SPS30;55544;51.032;5.866;2022-11-23T07:56:26;4.25;3.86;3.11;2.09;16.74;16.71;16.53;15.56;12.20;0.74
68555;SPS30;55544;51.032;5.866;2022-11-23T07:58:52;4.48;4.07;3.28;2.19;17.57;17.53;17.34;16.32;12.77;0.74
68555;SPS30;55544;51.032;5.866;2022-11-23T08:01:18;4.17;3.78;3.02;1.99;16.00;15.97;15.79;14.81;11.51;0.76
68555;SPS30;55544;51.032;5.866;2022-11-23T08:03:45;4.63;4.19;3.33;2.17;17.45;17.41;17.21;16.10;12.45;0.77
68555;SPS30;55544;51.032;5.866;2022-11-23T08:06:11;4.21;3.82;3.06;2.03;16.28;16.24;16.06;15.08;11.75;0.75
68555;SPS30;55544;51.032;5.866;2022-11-23T08:08:38;4.42;4.02;3.23;2.15;17.23;17.19;17.00;15.98;12.48;0.74
68555;SPS30;55544;51.032;5.866;2022-11-23T08:11:05;4.01;3.66;2.98;2.04;16.33;16.29;16.13;15.25;12.06;0.72
68555;SPS30;55544;51.032;5.866;2022-11-23T08:13:31;4.23;3.86;3.12;2.10;16.88;16.84;16.66;15.71;12.35;0.71
68555;SPS30;55544;51.032;5.866;2022-11-23T08:15:59;3.95;3.59;2.88;1.92;15.39;15.36;15.19;14.28;11.15;0.71
68555;SPS30;55544;51.032;5.866;2022-11-23T08:18:25;4.53;4.10;3.27;2.14;17.15;17.11;16.91;15.84;12.26;0.74
68555;SPS30;55544;51.032;5.866;2022-11-23T08:20:52;3.91;3.56;2.88;1.94;15.58;15.55;15.39;14.51;11.41;0.72
68555;SPS30;55544;51.032;5.866;2022-11-23T08:23:18;4.23;3.86;3.13;2.13;17.06;17.03;16.86;15.92;12.56;0.73
68555;SPS30;55544;51.032;5.866;2022-11-23T08:25:43;4.79;4.34;3.47;2.28;18.33;18.29;18.08;16.96;13.17;0.75
68555;SPS30;55544;51.032;5.866;2022-11-23T08:28:09;4.28;3.87;3.05;1.96;15.75;15.71;15.52;14.47;11.10;0.78
68555;SPS30;55544;51.032;5.866;2022-11-23T08:30:36;4.40;3.98;3.14;2.01;16.17;16.13;15.94;14.86;11.39;0.77
68555;SPS30;55544;51.032;5.866;2022-11-23T08:33:05;4.45;4.00;3.12;1.95;15.66;15.62;15.41;14.29;10.79;0.79
68555;SPS30;55544;51.032;5.866;2022-11-23T08:35:33;4.94;4.46;3.51;2.24;17.95;17.91;17.69;16.47;12.58;0.77
68555;SPS30;55544;51.032;5.866;2022-11-23T08:37:59;3.96;3.59;2.85;1.85;14.84;14.81;14.63;13.68;10.56;0.74
68555;SPS30;55544;51.032;5.866;2022-11-23T08:40:25;4.25;3.85;3.09;2.05;16.42;16.39;16.20;15.22;11.86;0.74
68555;SPS30;55544;51.032;5.866;2022-11-23T08:42:50;3.90;3.55;2.87;1.94;15.56;15.53;15.37;14.49;11.40;0.73
68555;SPS30;55544;51.032;5.866;2022-11-23T08:45:16;3.57;3.27;2.69;1.89;15.12;15.09;14.95;14.20;11.36;0.71
68555;SPS30;55544;51.032;5.866;2022-11-23T08:47:42;3.99;3.66;3.02;2.12;16.99;16.96;16.80;15.97;12.78;0.72
68555;SPS30;55544;51.032;5.866;2022-11-23T08:50:08;3.61;3.30;2.71;1.89;15.17;15.14;15.00;14.24;11.36;0.71
68555;SPS30;55544;51.032;5.866;2022-11-23T08:52:34;3.37;3.08;2.50;1.71;13.71;13.68;13.54;12.80;10.12;0.73
68555;SPS30;55544;51.032;5.866;2022-11-23T08:55:00;3.68;3.33;2.65;1.73;13.90;13.87;13.71;12.83;9.93;0.77
68555;SPS30;55544;51.032;5.866;2022-11-23T08:57:26;3.75;3.40;2.71;1.79;14.33;14.30;14.14;13.26;10.30;0.77
68555;SPS30;55544;51.032;5.866;2022-11-23T08:59:52;3.50;3.18;2.57;1.72;13.81;13.78;13.63;12.83;10.06;0.75
68555;SPS30;55544;51.032;5.866;2022-11-23T09:02:17;4.10;3.71;2.95;1.93;15.46;15.42;15.25;14.27;11.04;0.77
68555;SPS30;55544;51.032;5.866;2022-11-23T09:04:43;4.62;4.18;3.30;2.13;17.09;17.05;16.85;15.72;12.08;0.77
68555;SPS30;55544;51.032;5.866;2022-11-23T09:07:10;4.34;3.90;3.03;1.87;15.00;14.96;14.76;13.64;10.23;0.79
68555;SPS30;55544;51.032;5.866;2022-11-23T09:09:36;4.22;3.77;2.90;1.74;13.96;13.92;13.72;12.59;9.30;0.81
68555;SPS30;55544;51.032;5.866;2022-11-23T09:12:02;4.16;3.73;2.88;1.76;14.15;14.11;13.91;12.82;9.56;0.78
68555;SPS30;55544;51.032;5.866;2022-11-23T09:14:28;4.75;4.25;3.29;2.02;16.20;16.15;15.92;14.69;10.97;0.79
68555;SPS30;55544;51.032;5.866;2022-11-23T09:16:53;4.10;3.70;2.90;1.84;14.74;14.70;14.52;13.49;10.27;0.77
68555;SPS30;55544;51.032;5.866;2022-11-23T09:19:19;3.88;3.49;2.71;1.68;13.51;13.48;13.29;12.30;9.26;0.79
68555;SPS30;55544;51.032;5.866;2022-11-23T09:21:46;4.47;4.03;3.16;2.00;16.06;16.02;15.81;14.70;11.18;0.77
68555;SPS30;55544;51.032;5.866;2022-11-23T09:24:12;3.69;3.32;2.58;1.61;12.93;12.90;12.72;11.78;8.89;0.78
68555;SPS30;55544;51.032;5.866;2022-11-23T09:26:38;3.86;3.46;2.69;1.66;13.35;13.32;13.13;12.14;9.12;0.80
68555;SPS30;55544;51.032;5.866;2022-11-23T09:29:05;3.87;3.48;2.71;1.69;13.60;13.57;13.39;12.41;9.37;0.79